createdAt,value
2018-09-27T00:00:58.436Z,72.20
2018-09-27T00:03:33.894Z,72.00
2018-09-27T00:06:08.732Z,72.00
2018-09-27T00:08:43.561Z,72.50
2018-09-27T00:11:19.053Z,72.40
2018-09-27T00:13:54.554Z,73.10
2018-09-27T00:16:29.389Z,73.00
2018-09-27T00:19:04.252Z,72.80
2018-09-27T00:21:39.742Z,73.00
2018-09-27T00:24:14.621Z,73.00
2018-09-27T00:26:50.375Z,72.80
2018-09-27T00:29:25.932Z,72.70
2018-09-27T00:32:01.024Z,72.70
2018-09-27T00:34:35.823Z,73.00
2018-09-27T00:37:11.046Z,72.70
2018-09-27T00:39:46.131Z,73.20
2018-09-27T00:42:21.632Z,74.20
2018-09-27T00:44:56.526Z,73.50
2018-09-27T00:47:31.614Z,73.40
2018-09-27T00:50:07.231Z,73.70
2018-09-27T00:52:41.871Z,73.50
2018-09-27T00:55:17.365Z,73.60
2018-09-27T00:57:52.081Z,74.30
2018-09-27T01:00:27.473Z,75.10
2018-09-27T01:03:02.213Z,75.50
2018-09-27T01:05:37.736Z,74.90
2018-09-27T01:08:12.490Z,74.60
2018-09-27T01:10:47.251Z,74.90
2018-09-27T01:13:22.213Z,75.10
2018-09-27T01:15:57.093Z,74.50
2018-09-27T01:18:32.492Z,74.30
2018-09-27T01:21:07.277Z,74.00
2018-09-27T01:23:42.046Z,73.80
2018-09-27T01:26:16.788Z,74.00
2018-09-27T01:28:51.503Z,74.30
2018-09-27T01:31:26.271Z,74.60
2018-09-27T01:34:01.070Z,75.20
2018-09-27T01:36:35.887Z,75.30
2018-09-27T01:39:10.809Z,75.60
2018-09-27T01:41:45.636Z,74.60
2018-09-27T01:44:20.372Z,75.10
2018-09-27T01:46:55.168Z,75.00
2018-09-27T01:49:30.227Z,75.70
2018-09-27T01:52:05.202Z,76.00
2018-09-27T01:54:40.006Z,75.80
2018-09-27T01:57:14.700Z,76.10
2018-09-27T01:59:49.481Z,77.20
2018-09-27T02:02:24.389Z,76.40
2018-09-27T02:04:59.206Z,76.90
2018-09-27T02:07:33.862Z,76.10
2018-09-27T02:10:08.720Z,75.60
2018-09-27T02:12:43.585Z,75.70
2018-09-27T02:15:18.510Z,76.00
2018-09-27T02:17:53.294Z,75.70
2018-09-27T02:20:28.010Z,75.80
2018-09-27T02:23:02.893Z,75.30
2018-09-27T02:25:37.812Z,75.00
2018-09-27T02:28:12.809Z,75.50
2018-09-27T02:30:48.117Z,75.70
2018-09-27T02:33:22.828Z,76.50
2018-09-27T02:35:57.658Z,76.30
2018-09-27T02:38:32.446Z,76.60
2018-09-27T02:41:07.814Z,76.90
2018-09-27T02:43:43.355Z,76.90
2018-09-27T02:46:17.989Z,77.00
2018-09-27T02:48:52.649Z,77.40
2018-09-27T02:51:27.582Z,77.30
2018-09-27T02:54:02.411Z,76.90
2018-09-27T02:56:37.130Z,76.80
2018-09-27T02:59:11.937Z,77.20
2018-09-27T03:01:46.897Z,77.40
2018-09-27T03:04:21.740Z,77.90
2018-09-27T03:06:56.469Z,76.10
2018-09-27T03:09:31.260Z,76.90
2018-09-27T03:12:06.383Z,77.50
2018-09-27T03:14:41.117Z,77.30
2018-09-27T03:17:15.963Z,77.20
2018-09-27T03:19:50.796Z,77.60
2018-09-27T03:22:25.549Z,77.80
2018-09-27T03:25:01.196Z,78.00
2018-09-27T03:27:36.323Z,77.70
2018-09-27T03:30:11.150Z,76.80
2018-09-27T03:32:45.870Z,77.30
2018-09-27T03:35:20.914Z,77.40
2018-09-27T03:37:55.582Z,77.80
2018-09-27T03:40:30.690Z,78.30
2018-09-27T03:43:05.865Z,78.00
2018-09-27T03:45:40.808Z,78.10
2018-09-27T03:48:16.315Z,78.20
2018-09-27T03:50:51.664Z,78.60
2018-09-27T03:53:26.323Z,78.80
2018-09-27T03:56:01.815Z,79.10
2018-09-27T03:58:36.573Z,79.20
2018-09-27T04:01:11.802Z,79.30
2018-09-27T04:03:46.710Z,79.50
2018-09-27T04:06:22.293Z,78.90
2018-09-27T04:08:57.581Z,78.80
2018-09-27T04:11:32.243Z,79.40
2018-09-27T04:14:07.250Z,78.90
2018-09-27T04:16:41.926Z,78.90
2018-09-27T04:19:16.780Z,79.20
2018-09-27T04:21:51.574Z,78.90
2018-09-27T04:24:27.363Z,79.20
2018-09-27T04:27:02.386Z,78.90
2018-09-27T04:29:37.133Z,79.10
2018-09-27T04:32:11.947Z,79.10
2018-09-27T04:34:46.639Z,79.70
2018-09-27T04:37:22.209Z,79.00
2018-09-27T04:39:56.826Z,79.20
2018-09-27T04:42:31.729Z,79.80
2018-09-27T04:45:06.434Z,80.10
2018-09-27T04:47:41.789Z,80.00
2018-09-27T04:50:16.499Z,80.00
2018-09-27T04:52:51.402Z,80.00
2018-09-27T04:55:26.150Z,80.00
2018-09-27T04:58:00.934Z,80.00
2018-09-27T05:00:35.719Z,80.30
2018-09-27T05:03:10.356Z,80.40
2018-09-27T05:05:45.281Z,80.40
2018-09-27T05:08:19.977Z,79.70
2018-09-27T05:10:54.658Z,79.00
2018-09-27T05:13:29.891Z,78.40
2018-09-27T05:16:05.483Z,78.50
2018-09-27T05:18:41.173Z,79.60
2018-09-27T05:21:15.926Z,79.80
2018-09-27T05:23:50.671Z,80.10
2018-09-27T05:26:26.102Z,80.00
2018-09-27T05:29:01.626Z,79.80
2018-09-27T05:31:36.274Z,79.70
2018-09-27T05:34:10.977Z,79.70
2018-09-27T05:36:45.897Z,79.70
2018-09-27T05:39:21.498Z,80.40
2018-09-27T05:41:56.365Z,80.50
2018-09-27T05:44:31.097Z,80.60
2018-09-27T05:47:05.926Z,80.60
2018-09-27T05:49:40.603Z,80.90
2018-09-27T05:52:15.316Z,80.70
2018-09-27T05:54:50.164Z,81.90
2018-09-27T05:57:24.930Z,81.70
2018-09-27T05:59:59.915Z,82.20
2018-09-27T06:02:34.867Z,82.70
2018-09-27T06:05:09.592Z,84.80
2018-09-27T06:07:44.380Z,85.10
2018-09-27T06:10:19.149Z,85.20
2018-09-27T06:12:54.658Z,85.50
2018-09-27T06:15:29.474Z,85.60
2018-09-27T06:18:04.485Z,85.20
2018-09-27T06:20:39.116Z,85.10
2018-09-27T06:23:13.936Z,85.00
2018-09-27T06:25:49.829Z,84.80
2018-09-27T06:28:24.474Z,84.80
2018-09-27T06:30:59.237Z,84.70
2018-09-27T06:33:34.024Z,84.90
2018-09-27T06:36:08.963Z,85.40
2018-09-27T06:38:45.000Z,85.90
2018-09-27T06:41:19.929Z,86.00
2018-09-27T06:43:54.802Z,85.50
2018-09-27T06:46:29.701Z,85.50
2018-09-27T06:49:05.246Z,85.50
2018-09-27T06:51:40.221Z,85.20
2018-09-27T06:54:15.157Z,85.90
2018-09-27T06:56:49.836Z,85.80
2018-09-27T06:59:24.663Z,86.10
2018-09-27T07:02:00.714Z,85.80
2018-09-27T07:04:35.394Z,86.10
2018-09-27T07:07:10.031Z,86.40
2018-09-27T07:09:44.958Z,87.50
2018-09-27T07:12:19.733Z,86.50
2018-09-27T07:14:54.629Z,86.00
2018-09-27T07:17:29.453Z,86.30
2018-09-27T07:20:04.590Z,86.20
2018-09-27T07:22:40.256Z,86.40
2018-09-27T07:25:15.090Z,85.60
2018-09-27T07:27:49.959Z,85.10
2018-09-27T07:30:24.607Z,84.90
2018-09-27T07:32:59.417Z,82.90
2018-09-27T07:35:34.349Z,81.90
2018-09-27T07:38:09.817Z,81.60
2018-09-27T07:40:45.142Z,81.90
2018-09-27T07:43:19.785Z,81.70
2018-09-27T07:45:55.196Z,82.40
2018-09-27T07:48:30.405Z,80.80
2018-09-27T07:51:05.278Z,81.20
2018-09-27T07:53:40.431Z,81.20
2018-09-27T07:56:15.302Z,80.10
2018-09-27T07:58:49.882Z,77.80
2018-09-27T08:01:25.265Z,76.30
2018-09-27T08:04:00.818Z,73.40
2018-09-27T08:06:35.917Z,71.90
2018-09-27T08:09:10.734Z,69.90
2018-09-27T08:11:46.540Z,68.00
2018-09-27T08:14:21.837Z,66.90
2018-09-27T08:16:58.128Z,65.90
2018-09-27T08:19:33.674Z,63.50
2018-09-27T08:22:09.661Z,62.40
2018-09-27T08:24:45.501Z,61.20
2018-09-27T08:27:21.051Z,59.80
2018-09-27T08:29:56.281Z,58.70
2018-09-27T08:32:32.052Z,57.20
2018-09-27T08:35:07.829Z,56.00
2018-09-27T08:37:43.329Z,55.00
2018-09-27T08:40:19.026Z,54.60
2018-09-27T08:42:54.354Z,54.50
2018-09-27T08:45:29.896Z,52.90
2018-09-27T08:48:05.550Z,51.30
2018-09-27T08:50:41.137Z,51.50
2018-09-27T08:53:16.318Z,51.90
2018-09-27T08:55:51.976Z,51.00
2018-09-27T08:58:28.923Z,50.10
2018-09-27T09:01:04.366Z,49.60
2018-09-27T09:03:39.953Z,49.10
2018-09-27T09:06:15.319Z,48.30
2018-09-27T09:08:50.608Z,46.80
2018-09-27T09:11:26.637Z,45.90
2018-09-27T09:14:03.489Z,45.10
2018-09-27T09:16:38.894Z,44.30
2018-09-27T09:19:14.277Z,43.60
2018-09-27T09:21:49.784Z,42.50
2018-09-27T09:24:25.224Z,41.60
2018-09-27T09:27:00.966Z,39.40
2018-09-27T09:29:36.717Z,40.10
2018-09-27T09:32:12.910Z,40.40
2018-09-27T09:34:48.511Z,40.50
2018-09-27T09:37:23.855Z,39.60
2018-09-27T09:39:59.393Z,39.00
2018-09-27T09:42:34.594Z,38.00
2018-09-27T09:45:10.115Z,37.90
2018-09-27T09:47:46.641Z,37.00
2018-09-27T09:50:22.194Z,36.00
2018-09-27T09:52:57.852Z,35.10
2018-09-27T09:55:32.753Z,34.70
2018-09-27T09:58:08.101Z,35.70
2018-09-27T10:00:43.374Z,35.10
2018-09-27T10:03:18.584Z,34.70
2018-09-27T10:05:53.949Z,35.30
2018-09-27T10:08:29.171Z,34.20
2018-09-27T10:11:04.513Z,34.20
2018-09-27T10:13:40.271Z,32.90
2018-09-27T10:16:15.595Z,31.90
2018-09-27T10:18:50.522Z,32.00
2018-09-27T10:21:25.553Z,31.70
2018-09-27T10:24:00.685Z,30.90
2018-09-27T10:26:35.936Z,30.00
2018-09-27T10:29:10.993Z,30.20
2018-09-27T10:31:46.210Z,29.40
2018-09-27T10:34:21.335Z,29.30
2018-09-27T10:36:56.583Z,30.10
2018-09-27T10:39:32.269Z,29.30
2018-09-27T10:42:07.206Z,29.50
2018-09-27T10:44:42.246Z,28.70
2018-09-27T10:47:17.338Z,30.00
2018-09-27T10:49:52.292Z,29.20
2018-09-27T10:52:27.401Z,28.90
2018-09-27T10:55:02.596Z,30.00
2018-09-27T10:57:37.882Z,29.60
2018-09-27T11:00:21.672Z,29.10
2018-09-27T11:02:56.713Z,29.10
2018-09-27T11:05:31.917Z,29.00
2018-09-27T11:08:07.893Z,27.40
2018-09-27T11:10:43.149Z,28.50
2018-09-27T11:13:18.267Z,28.00
2018-09-27T11:15:53.491Z,27.60
2018-09-27T11:18:28.435Z,27.10
2018-09-27T11:21:03.874Z,28.70
2018-09-27T11:23:39.008Z,28.80
2018-09-27T11:26:13.967Z,28.40
2018-09-27T11:28:54.489Z,27.30
2018-09-27T11:31:34.738Z,26.70
2018-09-27T11:34:09.753Z,28.40
2018-09-27T11:36:44.913Z,27.90
2018-09-27T11:39:20.134Z,26.90
2018-09-27T11:41:55.317Z,26.70
2018-09-27T11:44:30.397Z,26.30
2018-09-27T11:47:06.086Z,25.10
2018-09-27T11:49:41.584Z,26.30
2018-09-27T11:52:17.431Z,26.30
2018-09-27T11:54:52.435Z,25.90
2018-09-27T11:57:27.476Z,26.70
2018-09-27T12:00:02.515Z,26.80
2018-09-27T12:02:37.951Z,25.60
2018-09-27T12:05:12.975Z,25.90
2018-09-27T12:07:48.053Z,25.70
2018-09-27T12:10:23.153Z,25.50
2018-09-27T12:12:58.788Z,25.00
2018-09-27T12:15:34.637Z,24.70
2018-09-27T12:18:09.680Z,25.70
2018-09-27T12:20:45.496Z,26.10
2018-09-27T12:23:20.550Z,26.00
2018-09-27T12:25:55.718Z,26.30
2018-09-27T12:28:31.786Z,26.20
2018-09-27T12:31:07.909Z,25.30
2018-09-27T12:33:43.696Z,24.80
2018-09-27T12:36:18.702Z,25.40
2018-09-27T12:38:53.987Z,24.50
2018-09-27T12:41:29.247Z,25.10
2018-09-27T12:44:04.594Z,24.90
2018-09-27T12:46:39.845Z,24.60
2018-09-27T12:49:15.606Z,24.30
2018-09-27T12:51:50.960Z,23.90
2018-09-27T12:54:26.223Z,23.10
2018-09-27T12:57:01.333Z,23.30
2018-09-27T12:59:36.461Z,23.40
2018-09-27T13:02:12.055Z,22.80
2018-09-27T13:04:47.243Z,23.80
2018-09-27T13:07:22.360Z,24.00
2018-09-27T13:09:57.803Z,24.10
2018-09-27T13:12:33.188Z,24.70
2018-09-27T13:15:09.868Z,24.60
2018-09-27T13:17:45.095Z,23.60
2018-09-27T13:20:20.422Z,23.70
2018-09-27T13:22:55.693Z,23.90
2018-09-27T13:25:31.100Z,23.60
2018-09-27T13:28:06.476Z,24.30
2018-09-27T13:30:42.233Z,24.20
2018-09-27T13:33:17.367Z,24.60
2018-09-27T13:35:52.447Z,24.70
2018-09-27T13:38:28.443Z,24.70
2018-09-27T13:41:03.634Z,25.40
2018-09-27T13:43:38.761Z,25.00
2018-09-27T13:46:14.024Z,24.90
2018-09-27T13:48:49.546Z,24.20
2018-09-27T13:51:24.905Z,24.10
2018-09-27T13:54:00.657Z,24.10
2018-09-27T13:56:35.769Z,24.00
2018-09-27T13:59:10.761Z,24.20
2018-09-27T14:01:46.312Z,24.30
2018-09-27T14:04:21.467Z,23.60
2018-09-27T14:06:56.789Z,23.60
2018-09-27T14:09:33.242Z,23.80
2018-09-27T14:12:08.210Z,24.10
2018-09-27T14:14:43.441Z,24.30
2018-09-27T14:17:18.720Z,24.20
2018-09-27T14:19:53.913Z,24.10
2018-09-27T14:22:29.128Z,23.70
2018-09-27T14:25:04.132Z,23.50
2018-09-27T14:27:39.202Z,23.00
2018-09-27T14:30:14.368Z,24.60
2018-09-27T14:32:49.565Z,24.00
2018-09-27T14:35:24.737Z,22.50
2018-09-27T14:37:59.943Z,23.20
2018-09-27T14:40:34.977Z,22.70
2018-09-27T14:43:10.339Z,23.10
2018-09-27T14:45:45.681Z,23.10
2018-09-27T14:48:21.033Z,23.70
2018-09-27T14:50:56.513Z,23.80
2018-09-27T14:53:31.634Z,23.60
2018-09-27T14:56:07.027Z,24.10
2018-09-27T14:58:43.071Z,23.20
2018-09-27T15:01:18.488Z,24.20
2018-09-27T15:03:53.674Z,23.10
2018-09-27T15:06:28.784Z,22.80
2018-09-27T15:09:04.766Z,23.40
2018-09-27T15:11:40.021Z,22.90
2018-09-27T15:14:14.992Z,22.90
2018-09-27T15:16:50.926Z,22.80
2018-09-27T15:19:26.122Z,24.40
2018-09-27T15:22:01.169Z,23.80
2018-09-27T15:24:36.838Z,23.60
2018-09-27T15:27:12.059Z,23.70
2018-09-27T15:29:47.097Z,23.40
2018-09-27T15:32:22.331Z,23.30
2018-09-27T15:34:57.324Z,23.40
2018-09-27T15:37:32.478Z,23.20
2018-09-27T15:40:07.845Z,24.00
2018-09-27T15:42:43.424Z,23.30
2018-09-27T15:45:18.459Z,23.20
2018-09-27T15:47:53.686Z,23.80
2018-09-27T15:50:28.824Z,24.30
2018-09-27T15:53:04.146Z,25.10
2018-09-27T15:55:39.301Z,25.60
2018-09-27T15:58:15.135Z,26.50
2018-09-27T16:00:51.009Z,26.50
2018-09-27T16:03:26.282Z,26.60
2018-09-27T16:06:01.679Z,27.50
2018-09-27T16:08:36.833Z,27.50
2018-09-27T16:11:12.295Z,28.10
2018-09-27T16:13:47.656Z,28.30
2018-09-27T16:16:23.482Z,29.40
2018-09-27T16:18:58.807Z,28.20
2018-09-27T16:21:34.023Z,28.00
2018-09-27T16:24:09.154Z,27.30
2018-09-27T16:26:44.348Z,26.60
2018-09-27T16:29:19.374Z,26.10
2018-09-27T16:31:54.760Z,25.90
2018-09-27T16:34:30.665Z,27.00
2018-09-27T16:37:06.882Z,28.40
2018-09-27T16:39:42.083Z,30.20
2018-09-27T16:42:17.673Z,31.90
2018-09-27T16:44:53.018Z,32.70
2018-09-27T16:47:28.702Z,33.50
2018-09-27T16:50:04.913Z,34.20
2018-09-27T16:52:41.358Z,34.80
2018-09-27T16:55:16.662Z,35.70
2018-09-27T16:57:52.368Z,36.40
2018-09-27T17:00:28.137Z,36.80
2018-09-27T17:03:03.438Z,37.50
2018-09-27T17:05:38.916Z,38.00
2018-09-27T17:08:14.625Z,38.20
2018-09-27T17:10:50.611Z,38.90
2018-09-27T17:13:25.853Z,40.10
2018-09-27T17:16:01.363Z,41.50
2018-09-27T17:18:36.873Z,40.50
2018-09-27T17:21:12.557Z,40.30
2018-09-27T17:23:48.003Z,40.90
2018-09-27T17:26:23.503Z,42.70
2018-09-27T17:28:58.993Z,43.70
2018-09-27T17:31:34.564Z,45.10
2018-09-27T17:34:10.204Z,45.50
2018-09-27T17:36:45.637Z,45.70
2018-09-27T17:39:21.206Z,45.60
2018-09-27T17:41:56.506Z,45.80
2018-09-27T17:44:32.370Z,45.90
2018-09-27T17:47:07.729Z,46.40
2018-09-27T17:49:43.142Z,46.90
2018-09-27T17:52:18.816Z,47.10
2018-09-27T17:54:54.848Z,47.20
2018-09-27T17:57:30.321Z,47.60
2018-09-27T18:00:06.250Z,47.80
2018-09-27T18:02:41.741Z,47.90
2018-09-27T18:05:19.451Z,48.20
2018-09-27T18:07:52.442Z,48.50
2018-09-27T18:10:27.778Z,48.60
2018-09-27T18:13:03.375Z,49.00
2018-09-27T18:15:38.821Z,49.20
2018-09-27T18:18:14.881Z,49.20
2018-09-27T18:20:50.658Z,50.10
2018-09-27T18:23:27.009Z,49.70
2018-09-27T18:26:02.975Z,50.20
2018-09-27T18:28:38.521Z,50.20
2018-09-27T18:31:14.207Z,50.40
2018-09-27T18:33:49.806Z,50.70
2018-09-27T18:36:25.157Z,51.10
2018-09-27T18:39:00.534Z,51.10
2018-09-27T18:41:35.917Z,50.80
2018-09-27T18:44:11.378Z,50.80
2018-09-27T18:46:46.795Z,51.40
2018-09-27T18:49:24.188Z,51.80
2018-09-27T18:51:59.570Z,52.10
2018-09-27T18:54:35.024Z,52.30
2018-09-27T18:57:23.636Z,53.00
2018-09-27T19:00:00.872Z,53.70
2018-09-27T19:02:42.667Z,53.10
2018-09-27T19:05:36.182Z,53.00
2018-09-27T19:08:12.040Z,53.40
2018-09-27T19:10:47.641Z,53.40
2018-09-27T19:13:38.722Z,53.60
2018-09-27T19:16:14.312Z,53.90
2018-09-27T19:18:50.662Z,54.00
2018-09-27T19:21:25.700Z,54.30
2018-09-27T19:24:00.678Z,54.40
2018-09-27T19:26:35.832Z,55.20
2018-09-27T19:29:10.895Z,55.50
2018-09-27T19:31:46.368Z,56.00
2018-09-27T19:34:21.154Z,56.40
2018-09-27T19:36:56.212Z,56.20
2018-09-27T19:39:30.905Z,56.20
2018-09-27T19:42:05.866Z,55.90
2018-09-27T19:44:40.723Z,56.20
2018-09-27T19:47:15.696Z,57.10
2018-09-27T19:49:50.560Z,57.70
2018-09-27T19:52:25.517Z,57.70
2018-09-27T19:55:00.681Z,58.20
2018-09-27T19:57:35.547Z,58.00
2018-09-27T20:00:10.767Z,58.00
2018-09-27T20:02:45.556Z,58.00
2018-09-27T20:05:20.613Z,57.80
2018-09-27T20:07:55.399Z,58.10
2018-09-27T20:10:31.715Z,58.20
2018-09-27T20:13:07.747Z,58.30
2018-09-27T20:15:42.835Z,58.60
2018-09-27T20:18:18.163Z,58.80
2018-09-27T20:20:53.031Z,58.70
2018-09-27T20:23:27.787Z,58.20
2018-09-27T20:26:02.565Z,59.00
2018-09-27T20:28:38.097Z,59.40
2018-09-27T20:31:14.119Z,60.70
2018-09-27T20:33:48.890Z,60.20
2018-09-27T20:36:24.174Z,60.00
2018-09-27T20:38:59.598Z,60.30
2018-09-27T20:41:34.430Z,60.80
2018-09-27T20:44:09.957Z,60.50
2018-09-27T20:46:44.997Z,60.80
2018-09-27T20:49:19.926Z,61.30
2018-09-27T20:51:55.005Z,62.30
2018-09-27T20:54:30.008Z,62.80
2018-09-27T20:57:05.517Z,62.40
2018-09-27T20:59:43.426Z,61.80
2018-09-27T21:02:18.157Z,61.50
2018-09-27T21:04:53.595Z,61.60
2018-09-27T21:07:28.409Z,62.10
2018-09-27T21:10:03.254Z,63.00
2018-09-27T21:12:37.924Z,63.00
2018-09-27T21:15:13.047Z,62.90
2018-09-27T21:17:48.059Z,62.80
2018-09-27T21:20:22.878Z,63.00
2018-09-27T21:22:57.716Z,62.80
2018-09-27T21:25:32.435Z,62.60
2018-09-27T21:28:07.322Z,63.20
2018-09-27T21:30:42.292Z,63.80
2018-09-27T21:33:17.051Z,64.20
2018-09-27T21:35:51.768Z,63.80
2018-09-27T21:38:26.531Z,64.00
2018-09-27T21:41:01.416Z,63.90
2018-09-27T21:43:36.590Z,64.20
2018-09-27T21:46:12.003Z,64.40
2018-09-27T21:48:47.254Z,65.00
2018-09-27T21:51:22.904Z,65.10
2018-09-27T21:53:57.878Z,65.00
2018-09-27T21:56:32.744Z,65.20
2018-09-27T21:59:07.738Z,65.20
2018-09-27T22:01:42.517Z,65.90
2018-09-27T22:04:17.349Z,66.20
2018-09-27T22:06:52.894Z,66.00
2018-09-27T22:09:28.345Z,66.30
2018-09-27T22:12:03.265Z,66.20
2018-09-27T22:14:38.056Z,66.20
2018-09-27T22:17:12.725Z,66.40
2018-09-27T22:19:47.540Z,66.50
2018-09-27T22:22:22.573Z,65.90
2018-09-27T22:24:57.398Z,66.00
2018-09-27T22:27:32.064Z,65.30
2018-09-27T22:30:07.786Z,65.60
2018-09-27T22:32:43.113Z,66.50
2018-09-27T22:35:18.003Z,66.70
2018-09-27T22:37:53.230Z,67.60
2018-09-27T22:40:28.038Z,67.40
2018-09-27T22:43:03.362Z,68.10
2018-09-27T22:45:37.989Z,68.50
2018-09-27T22:48:12.845Z,68.40
2018-09-27T22:50:48.283Z,68.00
2018-09-27T22:53:23.006Z,68.00
2018-09-27T22:55:57.927Z,67.90
2018-09-27T22:58:32.675Z,67.90
2018-09-27T23:01:07.677Z,68.10
2018-09-27T23:03:43.167Z,68.70
2018-09-27T23:06:18.267Z,68.90
2018-09-27T23:08:52.984Z,68.90
2018-09-27T23:11:31.892Z,68.90
2018-09-27T23:14:06.637Z,68.40
2018-09-27T23:16:41.305Z,68.80
2018-09-27T23:19:16.220Z,68.10
2018-09-27T23:21:51.651Z,69.20
2018-09-27T23:24:26.396Z,68.90
2018-09-27T23:27:01.043Z,69.00
2018-09-27T23:29:35.742Z,70.10
2018-09-27T23:32:11.157Z,69.50
2018-09-27T23:34:47.063Z,69.10
2018-09-27T23:37:21.787Z,70.30
2018-09-27T23:39:56.555Z,70.70
2018-09-27T23:42:31.241Z,71.00
2018-09-27T23:45:06.483Z,71.00
2018-09-27T23:47:42.306Z,71.30
2018-09-27T23:50:17.014Z,71.60
2018-09-27T23:52:51.988Z,71.50
2018-09-27T23:55:26.846Z,70.50
2018-09-27T23:58:02.050Z,71.00
